Niederanven, Luxembourg
Current Conditions -  °F | °C
As of 9:20 PM on Monday 24 Nov 2014 (Local Time) from ELLX Reporting Station
Broken Clouds Broken Clouds  
Wind Chill: 36°   Ceiling: 2600
Heat Index: 43°   Visibility: 6mi
Dew Point: 39°   Wind: 14mph
Humidity: 87%   Direction: 40°NE
Pressure: 30.27"   Gusts: NA
Location:  49.65°N, 6.26°E
Report Text: ELLX 242020Z 04012KT 9999 FEW017 BKN026 06/04 Q1025 NOSIG
Loading
Personal Weather Stations






























Interactive Weather Map New forecast layout! Learn more

10-Day Weather Forecast

Advertisements
Track Severe Weather on mobile